createdAt,value
2023-04-15T00:00:43.835Z,24.63
2023-04-15T00:01:43.836Z,24.64
2023-04-15T00:02:43.856Z,24.66
2023-04-15T00:03:43.942Z,24.64
2023-04-15T00:04:43.765Z,24.62
2023-04-15T00:05:43.707Z,24.64
2023-04-15T00:06:43.676Z,24.63
2023-04-15T00:07:43.650Z,24.61
2023-04-15T00:08:43.634Z,24.60
2023-04-15T00:09:43.593Z,24.62
2023-04-15T00:10:43.562Z,24.64
2023-04-15T00:11:43.553Z,24.64
2023-04-15T00:12:43.509Z,24.64
2023-04-15T00:13:43.524Z,24.63
2023-04-15T00:14:43.516Z,24.64
2023-04-15T00:15:43.553Z,24.63
2023-04-15T00:16:43.555Z,24.65
2023-04-15T00:17:43.624Z,24.64
2023-04-15T00:18:43.558Z,24.64
2023-04-15T00:19:43.613Z,24.64
2023-04-15T00:20:43.607Z,24.62
2023-04-15T00:21:43.614Z,24.65
2023-04-15T00:22:43.624Z,24.62
2023-04-15T00:23:43.617Z,24.63
2023-04-15T00:24:43.617Z,24.63
2023-04-15T00:25:43.623Z,24.62
2023-04-15T00:26:43.630Z,24.63
2023-04-15T00:27:43.641Z,24.62
2023-04-15T00:28:43.694Z,24.62
2023-04-15T00:29:43.734Z,24.64
2023-04-15T00:30:43.729Z,24.63
2023-04-15T00:31:43.775Z,24.63
2023-04-15T00:32:43.774Z,24.64
2023-04-15T00:33:43.744Z,24.63
2023-04-15T00:34:43.756Z,24.66
2023-04-15T00:35:43.742Z,24.65
2023-04-15T00:36:43.709Z,24.63
2023-04-15T00:37:45.914Z,24.63
2023-04-15T00:38:43.776Z,24.62
2023-04-15T00:39:43.784Z,24.62
2023-04-15T00:40:43.768Z,24.64
2023-04-15T00:41:43.781Z,24.64
2023-04-15T00:42:43.788Z,24.62
2023-04-15T00:43:43.796Z,24.64
2023-04-15T00:44:43.801Z,24.64
2023-04-15T00:45:43.828Z,24.64
2023-04-15T00:46:43.801Z,24.64
2023-04-15T00:47:43.836Z,24.63
2023-04-15T00:48:43.834Z,24.62
2023-04-15T00:49:43.846Z,24.64
2023-04-15T00:50:43.842Z,24.63
2023-04-15T00:51:43.859Z,24.62
2023-04-15T00:52:43.845Z,24.62
2023-04-15T00:53:43.856Z,24.64
2023-04-15T00:54:43.849Z,24.63
2023-04-15T00:55:43.856Z,24.64
2023-04-15T00:56:43.854Z,24.63
2023-04-15T00:57:43.883Z,24.62
2023-04-15T00:58:43.886Z,24.63
2023-04-15T00:59:43.890Z,24.63
2023-04-15T01:00:43.892Z,24.62
2023-04-15T01:01:43.949Z,24.62
2023-04-15T01:02:44.073Z,24.63
2023-04-15T01:03:44.023Z,24.62
2023-04-15T01:04:43.913Z,24.62
2023-04-15T01:05:43.890Z,24.62
2023-04-15T01:06:43.863Z,24.63
2023-04-15T01:07:43.858Z,24.63
2023-04-15T01:08:43.825Z,24.63
2023-04-15T01:09:43.800Z,24.63
2023-04-15T01:10:43.810Z,24.63
2023-04-15T01:11:43.768Z,24.62
2023-04-15T01:12:43.754Z,24.63
2023-04-15T01:13:43.722Z,24.64
2023-04-15T01:14:43.703Z,24.63
2023-04-15T01:15:43.703Z,24.62
2023-04-15T01:16:43.675Z,24.62
2023-04-15T01:17:43.664Z,24.63
2023-04-15T01:18:43.610Z,24.62
2023-04-15T01:19:43.601Z,24.65
2023-04-15T01:20:43.577Z,24.64
2023-04-15T01:21:43.541Z,24.64
2023-04-15T01:22:43.547Z,24.63
2023-04-15T01:23:43.572Z,24.61
2023-04-15T01:24:43.568Z,24.63
2023-04-15T01:25:43.600Z,24.64
2023-04-15T01:26:44.694Z,24.62
2023-04-15T01:27:43.594Z,24.63
2023-04-15T01:28:43.592Z,24.64
2023-04-15T01:29:43.572Z,24.60
2023-04-15T01:30:43.532Z,24.65
2023-04-15T01:31:43.537Z,24.65
2023-04-15T01:32:43.524Z,24.63
2023-04-15T01:33:43.500Z,24.63
2023-04-15T01:34:43.464Z,24.63
2023-04-15T01:35:43.458Z,24.64
2023-04-15T01:36:43.427Z,24.62
2023-04-15T01:37:43.405Z,24.64
2023-04-15T01:38:43.369Z,24.62
2023-04-15T01:39:43.363Z,24.61
2023-04-15T01:40:43.333Z,24.62
2023-04-15T01:41:43.322Z,24.62
2023-04-15T01:42:43.302Z,24.63
2023-04-15T01:43:43.270Z,24.63
2023-04-15T01:44:43.279Z,24.64
2023-04-15T01:45:43.262Z,24.63
2023-04-15T01:46:43.250Z,24.61
2023-04-15T01:47:43.201Z,24.64
2023-04-15T01:48:43.185Z,24.64
2023-04-15T01:49:43.213Z,24.61
2023-04-15T01:50:43.212Z,24.61
2023-04-15T01:51:43.211Z,24.64
2023-04-15T01:52:43.209Z,24.64
2023-04-15T01:53:43.219Z,24.63
2023-04-15T01:54:43.242Z,24.63
2023-04-15T01:55:43.238Z,24.64
2023-04-15T01:56:43.266Z,24.63
2023-04-15T01:57:43.262Z,24.63
2023-04-15T01:58:43.261Z,24.64
2023-04-15T01:59:43.278Z,24.62
2023-04-15T02:00:43.352Z,24.61
2023-04-15T02:01:43.306Z,24.63
2023-04-15T02:02:43.439Z,24.62
2023-04-15T02:03:43.392Z,24.62
2023-04-15T02:04:43.354Z,24.61
2023-04-15T02:05:43.342Z,24.62
2023-04-15T02:06:43.357Z,24.63
2023-04-15T02:07:43.406Z,24.62
2023-04-15T02:08:43.361Z,24.63
2023-04-15T02:09:43.376Z,24.64
2023-04-15T02:10:43.391Z,24.64
2023-04-15T02:11:43.396Z,24.62
2023-04-15T02:12:43.400Z,24.63
2023-04-15T02:13:43.414Z,24.60
2023-04-15T02:14:43.440Z,24.62
2023-04-15T02:15:43.427Z,24.63
2023-04-15T02:16:43.468Z,24.65
2023-04-15T02:17:43.480Z,24.64
2023-04-15T02:18:43.465Z,24.66
2023-04-15T02:19:43.469Z,24.63
2023-04-15T02:20:43.489Z,24.62
2023-04-15T02:21:43.486Z,24.65
2023-04-15T02:22:43.530Z,24.63
2023-04-15T02:23:43.500Z,24.66
2023-04-15T02:24:43.508Z,24.65
2023-04-15T02:25:43.500Z,24.62
2023-04-15T02:26:44.478Z,24.62
2023-04-15T02:27:43.450Z,24.62
2023-04-15T02:28:43.438Z,24.63
2023-04-15T02:29:43.407Z,24.63
2023-04-15T02:30:43.382Z,24.63
2023-04-15T02:31:43.380Z,24.61
2023-04-15T02:32:43.350Z,24.63
2023-04-15T02:33:43.325Z,24.63
2023-04-15T02:34:43.304Z,24.61
2023-04-15T02:35:43.265Z,24.62
2023-04-15T02:36:43.264Z,24.63
2023-04-15T02:37:43.234Z,24.61
2023-04-15T02:38:43.209Z,24.60
2023-04-15T02:39:43.204Z,24.61
2023-04-15T02:40:43.160Z,24.60
2023-04-15T02:41:43.136Z,24.59
2023-04-15T02:42:43.132Z,24.60
2023-04-15T02:43:43.159Z,24.61
2023-04-15T02:44:43.201Z,24.60
2023-04-15T02:45:43.320Z,24.60
2023-04-15T02:46:43.247Z,24.62
2023-04-15T02:47:43.368Z,24.62
2023-04-15T02:48:43.230Z,24.61
2023-04-15T02:49:43.215Z,24.62
2023-04-15T02:50:43.195Z,24.60
2023-04-15T02:51:43.166Z,24.62
2023-04-15T02:52:43.147Z,24.60
2023-04-15T02:53:43.118Z,24.60
2023-04-15T02:54:43.114Z,24.58
2023-04-15T02:55:43.166Z,24.60
2023-04-15T02:56:43.050Z,24.60
2023-04-15T02:57:43.044Z,24.60
2023-04-15T02:58:43.024Z,24.59
2023-04-15T02:59:43.013Z,24.59
2023-04-15T03:00:42.984Z,24.61
2023-04-15T03:01:43.196Z,24.59
2023-04-15T03:02:43.247Z,24.60
2023-04-15T03:03:43.058Z,24.60
2023-04-15T03:04:42.915Z,24.58
2023-04-15T03:05:42.930Z,24.56
2023-04-15T03:06:42.917Z,24.58
2023-04-15T03:07:42.933Z,24.59
2023-04-15T03:08:42.988Z,24.61
2023-04-15T03:09:42.959Z,24.58
2023-04-15T03:10:42.992Z,24.61
2023-04-15T03:11:42.993Z,24.59
2023-04-15T03:12:42.991Z,24.59
2023-04-15T03:13:43.012Z,24.59
2023-04-15T03:14:43.020Z,24.59
2023-04-15T03:15:43.096Z,24.61
2023-04-15T03:16:43.073Z,24.59
2023-04-15T03:17:43.099Z,24.58
2023-04-15T03:18:43.093Z,24.59
2023-04-15T03:19:43.123Z,24.58
2023-04-15T03:20:43.147Z,24.60
2023-04-15T03:21:43.139Z,24.60
2023-04-15T03:22:43.145Z,24.59
2023-04-15T03:23:43.119Z,24.61
2023-04-15T03:24:43.092Z,24.60
2023-04-15T03:25:43.076Z,24.58
2023-04-15T03:26:43.056Z,24.60
2023-04-15T03:27:43.032Z,24.62
2023-04-15T03:28:43.016Z,24.62
2023-04-15T03:29:43.037Z,24.62
2023-04-15T03:30:42.984Z,24.64
2023-04-15T03:31:42.960Z,24.61
2023-04-15T03:32:42.974Z,24.61
2023-04-15T03:33:42.917Z,24.62
2023-04-15T03:34:42.905Z,24.61
2023-04-15T03:35:42.872Z,24.60
2023-04-15T03:36:42.859Z,24.61
2023-04-15T03:37:42.828Z,24.64
2023-04-15T03:38:42.818Z,24.61
2023-04-15T03:39:42.787Z,24.63
2023-04-15T03:40:42.775Z,24.62
2023-04-15T03:41:42.755Z,24.64
2023-04-15T03:42:42.723Z,24.62
2023-04-15T03:43:42.698Z,24.62
2023-04-15T03:44:42.687Z,24.62
2023-04-15T03:45:42.666Z,24.64
2023-04-15T03:46:42.665Z,24.63
2023-04-15T03:47:42.665Z,24.61
2023-04-15T03:48:42.608Z,24.62
2023-04-15T03:49:42.586Z,24.62
2023-04-15T03:50:42.572Z,24.61
2023-04-15T03:51:42.544Z,24.60
2023-04-15T03:52:42.537Z,24.60
2023-04-15T03:53:42.548Z,24.59
2023-04-15T03:54:42.509Z,24.60
2023-04-15T03:55:42.479Z,24.60
2023-04-15T03:56:42.464Z,24.60
2023-04-15T03:57:42.454Z,24.61
2023-04-15T03:58:42.457Z,24.62
2023-04-15T03:59:42.475Z,24.59
2023-04-15T04:00:42.488Z,24.61
2023-04-15T04:01:42.512Z,24.63
2023-04-15T04:02:42.656Z,24.62
2023-04-15T04:03:42.644Z,24.58
2023-04-15T04:04:42.661Z,24.61
2023-04-15T04:05:42.571Z,24.61
2023-04-15T04:06:42.596Z,24.61
2023-04-15T04:07:42.592Z,24.60
2023-04-15T04:08:42.618Z,24.61
2023-04-15T04:09:42.632Z,24.61
2023-04-15T04:10:42.646Z,24.60
2023-04-15T04:11:42.666Z,24.62
2023-04-15T04:12:42.665Z,24.60
2023-04-15T04:13:42.699Z,24.60
2023-04-15T04:14:42.712Z,24.61
2023-04-15T04:15:42.781Z,24.60
2023-04-15T04:16:42.782Z,24.61
2023-04-15T04:17:42.782Z,24.61
2023-04-15T04:18:42.778Z,24.59
2023-04-15T04:19:42.787Z,24.61
2023-04-15T04:20:42.833Z,24.59
2023-04-15T04:21:42.825Z,24.60
2023-04-15T04:22:42.875Z,24.59
2023-04-15T04:23:42.903Z,24.60
2023-04-15T04:24:42.953Z,24.61
2023-04-15T04:25:42.932Z,24.59
2023-04-15T04:26:42.939Z,24.58
2023-04-15T04:27:42.976Z,24.59
2023-04-15T04:28:42.973Z,24.59
2023-04-15T04:29:43.001Z,24.57
2023-04-15T04:30:43.018Z,24.59
2023-04-15T04:31:43.056Z,24.59
2023-04-15T04:32:43.094Z,24.59
2023-04-15T04:33:43.028Z,24.60
2023-04-15T04:34:43.010Z,24.57
2023-04-15T04:35:42.990Z,24.60
2023-04-15T04:36:42.984Z,24.58
2023-04-15T04:37:42.947Z,24.59
2023-04-15T04:38:42.924Z,24.57
2023-04-15T04:39:42.920Z,24.57
2023-04-15T04:40:42.882Z,24.55
2023-04-15T04:41:42.847Z,24.58
2023-04-15T04:42:42.858Z,24.57
2023-04-15T04:43:42.823Z,24.56
2023-04-15T04:44:42.794Z,24.57
2023-04-15T04:45:42.881Z,24.54
2023-04-15T04:46:42.758Z,24.56
2023-04-15T04:47:42.779Z,24.56
2023-04-15T04:48:43.083Z,24.54
2023-04-15T04:49:42.793Z,24.56
2023-04-15T04:50:42.801Z,24.57
2023-04-15T04:51:42.814Z,24.57
2023-04-15T04:52:42.832Z,24.56
2023-04-15T04:53:42.854Z,24.56
2023-04-15T04:54:42.901Z,24.55
2023-04-15T04:55:42.907Z,24.55
2023-04-15T04:56:42.909Z,24.56
2023-04-15T04:57:42.941Z,24.57
2023-04-15T04:58:42.954Z,24.57
2023-04-15T04:59:42.980Z,24.54
2023-04-15T05:00:43.015Z,24.52
2023-04-15T05:01:43.053Z,24.53
2023-04-15T05:02:43.145Z,24.55
2023-04-15T05:03:43.042Z,24.55
2023-04-15T05:04:43.067Z,24.54
2023-04-15T05:05:43.070Z,24.55
2023-04-15T05:06:43.090Z,24.53
2023-04-15T05:07:43.105Z,24.53
2023-04-15T05:08:43.132Z,24.53
2023-04-15T05:09:43.143Z,24.55
2023-04-15T05:10:43.163Z,24.54
2023-04-15T05:11:43.181Z,24.54
2023-04-15T05:12:43.205Z,24.54
2023-04-15T05:13:43.210Z,24.53
2023-04-15T05:14:43.265Z,24.52
2023-04-15T05:15:43.323Z,24.54
2023-04-15T05:16:43.266Z,24.53
2023-04-15T05:17:43.345Z,24.53
2023-04-15T05:18:43.300Z,24.52
2023-04-15T05:19:43.326Z,24.51
2023-04-15T05:20:43.358Z,24.53
2023-04-15T05:21:43.359Z,24.49
2023-04-15T05:22:43.401Z,24.50
2023-04-15T05:23:43.391Z,24.48
2023-04-15T05:24:43.442Z,24.49
2023-04-15T05:25:43.444Z,24.50
2023-04-15T05:26:43.473Z,24.50
2023-04-15T05:27:43.501Z,24.48
2023-04-15T05:28:43.517Z,24.49
2023-04-15T05:29:43.528Z,24.49
2023-04-15T05:30:43.561Z,24.48
2023-04-15T05:31:43.589Z,24.50
2023-04-15T05:32:43.686Z,24.49
2023-04-15T05:33:43.606Z,24.47
2023-04-15T05:34:43.625Z,24.46
2023-04-15T05:35:43.642Z,24.50
2023-04-15T05:36:43.667Z,24.50
2023-04-15T05:37:43.692Z,24.49
2023-04-15T05:38:43.698Z,24.48
2023-04-15T05:39:43.717Z,24.47
2023-04-15T05:40:43.732Z,24.50
2023-04-15T05:41:43.756Z,24.51
2023-04-15T05:42:43.775Z,24.50
2023-04-15T05:43:43.806Z,24.48
2023-04-15T05:44:43.823Z,24.49
2023-04-15T05:45:43.836Z,24.50
2023-04-15T05:46:43.887Z,24.49
2023-04-15T05:49:03.040Z,24.55
2023-04-15T05:50:02.804Z,24.51
2023-04-15T05:51:02.827Z,24.51
2023-04-15T05:52:02.795Z,24.50
2023-04-15T05:53:02.804Z,24.49
2023-04-15T05:54:02.801Z,24.48
2023-04-15T05:55:02.801Z,24.48
2023-04-15T05:56:02.795Z,24.46
2023-04-15T05:57:02.796Z,24.45
2023-04-15T05:58:02.776Z,24.46
2023-04-15T05:59:02.953Z,24.46
2023-04-15T06:00:02.773Z,24.47
2023-04-15T06:01:02.786Z,24.47
2023-04-15T06:02:02.776Z,24.44
2023-04-15T06:03:02.825Z,24.46
2023-04-15T06:04:02.856Z,24.46
2023-04-15T06:05:02.876Z,24.44
2023-04-15T06:06:02.775Z,24.45
2023-04-15T06:07:02.776Z,24.43
2023-04-15T06:08:02.763Z,24.43
2023-04-15T06:09:02.855Z,24.44
2023-04-15T06:10:02.746Z,24.46
2023-04-15T06:11:02.744Z,24.43
2023-04-15T06:12:02.725Z,24.43
2023-04-15T06:13:02.716Z,24.43
2023-04-15T06:14:02.727Z,24.40
2023-04-15T06:15:02.713Z,24.43
2023-04-15T06:16:02.722Z,24.43
2023-04-15T06:17:02.712Z,24.42
2023-04-15T06:18:02.728Z,24.43
2023-04-15T06:19:02.831Z,24.40
2023-04-15T06:20:02.724Z,24.43
2023-04-15T06:21:02.705Z,24.42
2023-04-15T06:22:02.703Z,24.43
2023-04-15T06:23:02.699Z,24.40
2023-04-15T06:24:02.697Z,24.41
2023-04-15T06:25:02.684Z,24.39
2023-04-15T06:26:02.683Z,24.40
2023-04-15T06:27:02.700Z,24.41
2023-04-15T06:28:02.675Z,24.40
2023-04-15T06:29:02.934Z,24.38
2023-04-15T06:30:02.673Z,24.38
2023-04-15T06:31:02.663Z,24.39
2023-04-15T06:32:02.652Z,24.36
2023-04-15T06:33:02.678Z,24.37
2023-04-15T06:34:02.643Z,24.37
2023-04-15T06:35:02.630Z,24.39
2023-04-15T06:36:02.649Z,24.35
2023-04-15T06:37:04.417Z,24.37
2023-04-15T06:38:02.624Z,24.36
2023-04-15T06:39:02.846Z,24.36
2023-04-15T06:40:02.591Z,24.36
2023-04-15T06:41:02.587Z,24.35
2023-04-15T06:42:02.587Z,24.35
2023-04-15T06:43:02.566Z,24.34
2023-04-15T06:44:02.567Z,24.33
2023-04-15T06:45:02.558Z,24.34
2023-04-15T06:46:02.677Z,24.36
2023-04-15T06:47:02.537Z,24.33
2023-04-15T06:48:02.544Z,24.34
2023-04-15T06:49:02.640Z,24.32
2023-04-15T06:50:02.517Z,24.33
2023-04-15T06:51:02.505Z,24.32
2023-04-15T06:52:02.522Z,24.33
2023-04-15T06:53:02.478Z,24.32
2023-04-15T06:54:02.472Z,24.32
2023-04-15T06:55:02.473Z,24.31
2023-04-15T06:56:02.460Z,24.30
2023-04-15T06:57:02.458Z,24.30
2023-04-15T06:58:02.453Z,24.30
2023-04-15T06:59:02.555Z,24.27
2023-04-15T07:00:02.479Z,24.25
2023-04-15T07:01:02.511Z,24.26
2023-04-15T07:02:02.428Z,24.26
2023-04-15T07:03:02.426Z,24.25
2023-04-15T07:04:02.426Z,24.20
2023-04-15T07:05:02.397Z,24.22
2023-04-15T07:06:02.390Z,24.23
2023-04-15T07:07:02.427Z,24.20
2023-04-15T07:08:02.403Z,24.19
2023-04-15T07:09:02.653Z,24.21
2023-04-15T07:10:02.390Z,24.20
2023-04-15T07:11:02.440Z,24.17
2023-04-15T07:12:02.459Z,24.16
2023-04-15T07:13:02.462Z,24.16
2023-04-15T07:14:02.515Z,24.15
2023-04-15T07:15:02.501Z,24.14
2023-04-15T07:16:02.530Z,24.15
2023-04-15T07:17:02.602Z,24.13
2023-04-15T07:18:02.611Z,24.14
2023-04-15T07:19:02.694Z,24.11
2023-04-15T07:20:02.586Z,24.09
2023-04-15T07:21:02.586Z,24.06
2023-04-15T07:22:02.606Z,24.04
2023-04-15T07:23:02.621Z,24.03
2023-04-15T07:24:02.624Z,24.05
2023-04-15T07:25:02.648Z,24.07
2023-04-15T07:26:02.663Z,24.02
2023-04-15T07:27:02.695Z,24.00
2023-04-15T07:28:02.694Z,23.99
2023-04-15T07:29:03.109Z,23.97
2023-04-15T07:30:02.731Z,23.97
2023-04-15T07:31:02.820Z,23.96
2023-04-15T07:32:02.757Z,23.93
2023-04-15T07:33:02.782Z,23.94
2023-04-15T07:34:02.799Z,23.96
2023-04-15T07:35:02.803Z,23.93
2023-04-15T07:36:02.825Z,23.92
2023-04-15T07:37:02.809Z,23.92
2023-04-15T07:38:02.798Z,23.91
2023-04-15T07:39:03.117Z,23.89
2023-04-15T07:40:02.778Z,23.86
2023-04-15T07:41:02.879Z,23.85
2023-04-15T07:42:02.770Z,23.85
2023-04-15T07:43:02.744Z,23.82
2023-04-15T07:44:02.737Z,23.84
2023-04-15T07:45:02.723Z,23.81
2023-04-15T07:46:02.747Z,23.81
2023-04-15T07:47:02.746Z,23.82
2023-04-15T07:48:02.761Z,23.84
2023-04-15T07:49:02.811Z,23.83
2023-04-15T07:50:02.724Z,23.79
2023-04-15T07:51:02.673Z,23.78
2023-04-15T07:52:02.666Z,23.78
2023-04-15T07:53:02.718Z,23.78
2023-04-15T07:54:02.678Z,23.76
2023-04-15T07:55:02.660Z,23.72
2023-04-15T07:56:02.660Z,23.72
2023-04-15T07:57:02.644Z,23.68
2023-04-15T07:58:02.657Z,23.66
2023-04-15T07:59:02.861Z,23.65
2023-04-15T08:00:02.636Z,23.66
2023-04-15T08:01:02.619Z,23.61
2023-04-15T08:02:02.722Z,23.58
2023-04-15T08:03:02.899Z,23.58
2023-04-15T08:04:02.801Z,23.59
2023-04-15T08:05:02.632Z,23.59
2023-04-15T08:06:02.593Z,23.59
2023-04-15T08:07:02.599Z,23.55
2023-04-15T08:08:02.601Z,23.55
2023-04-15T08:09:02.670Z,23.53
2023-04-15T08:10:02.566Z,23.54
2023-04-15T08:11:02.561Z,23.55
2023-04-15T08:12:02.551Z,23.49
2023-04-15T08:13:02.571Z,23.49
2023-04-15T08:14:02.532Z,23.48
2023-04-15T08:15:02.564Z,23.45
2023-04-15T08:16:02.563Z,23.43
2023-04-15T08:17:02.527Z,23.41
2023-04-15T08:18:02.500Z,23.41
2023-04-15T08:19:02.715Z,23.39
2023-04-15T08:20:02.577Z,23.39
2023-04-15T08:21:02.630Z,23.33
2023-04-15T08:22:02.645Z,23.39
2023-04-15T08:23:02.654Z,23.34
2023-04-15T08:24:02.635Z,23.30
2023-04-15T08:25:02.642Z,23.30
2023-04-15T08:26:02.656Z,23.30
2023-04-15T08:27:02.632Z,23.27
2023-04-15T08:28:02.680Z,23.26
2023-04-15T08:29:02.922Z,23.26
2023-04-15T08:30:04.671Z,23.28
2023-04-15T08:31:02.660Z,23.23
2023-04-15T08:32:02.644Z,23.20
2023-04-15T08:33:02.733Z,23.19
2023-04-15T08:34:02.632Z,23.18
2023-04-15T08:35:02.615Z,23.17
2023-04-15T08:36:02.618Z,23.13
2023-04-15T08:37:02.614Z,23.13
2023-04-15T08:38:02.622Z,23.06
2023-04-15T08:39:02.833Z,23.03
2023-04-15T08:40:02.700Z,23.03
2023-04-15T08:41:02.581Z,23.03
2023-04-15T08:42:02.709Z,22.98
2023-04-15T08:43:02.595Z,22.97
2023-04-15T08:44:02.607Z,22.94
2023-04-15T08:45:02.589Z,22.98
2023-04-15T08:46:02.589Z,22.90
2023-04-15T08:47:02.756Z,22.89
2023-04-15T08:48:02.635Z,22.92
2023-04-15T08:49:02.681Z,22.89
2023-04-15T08:50:02.540Z,22.93
2023-04-15T08:51:02.539Z,22.93
2023-04-15T08:52:02.519Z,22.87
2023-04-15T08:53:02.528Z,22.94
2023-04-15T08:54:02.550Z,22.82
2023-04-15T08:55:02.520Z,22.84
2023-04-15T08:56:02.494Z,22.98
2023-04-15T08:57:02.509Z,22.78
2023-04-15T08:58:02.530Z,22.79
2023-04-15T08:59:02.631Z,22.89
2023-04-15T09:00:03.838Z,22.94
2023-04-15T09:01:02.480Z,22.97
2023-04-15T09:02:02.473Z,22.99
2023-04-15T09:03:02.546Z,22.97
2023-04-15T09:04:02.466Z,22.95
2023-04-15T09:05:02.450Z,22.92
2023-04-15T09:06:02.427Z,22.88
2023-04-15T09:07:02.431Z,22.84
2023-04-15T09:08:02.479Z,22.86
2023-04-15T09:09:02.564Z,22.83
2023-04-15T09:10:02.390Z,22.80
2023-04-15T09:11:02.378Z,22.79
2023-04-15T09:12:02.355Z,22.78
2023-04-15T09:13:02.336Z,22.75
2023-04-15T09:14:02.337Z,22.74
2023-04-15T09:15:02.300Z,22.74
2023-04-15T09:16:02.300Z,22.73
2023-04-15T09:17:02.417Z,22.73
2023-04-15T09:18:02.297Z,22.74
2023-04-15T09:19:02.469Z,22.74
2023-04-15T09:20:02.268Z,22.72
2023-04-15T09:21:02.235Z,22.69
2023-04-15T09:22:02.229Z,22.68
2023-04-15T09:23:02.202Z,22.68
2023-04-15T09:24:02.418Z,22.72
2023-04-15T09:25:02.182Z,22.72
2023-04-15T09:26:02.163Z,22.71
2023-04-15T09:27:02.149Z,22.74
2023-04-15T09:28:02.262Z,22.76
2023-04-15T09:29:02.111Z,22.73
2023-04-15T09:30:02.120Z,22.68
2023-04-15T09:31:02.222Z,22.72
2023-04-15T09:32:02.094Z,22.68
2023-04-15T09:33:02.142Z,22.68
2023-04-15T09:34:02.240Z,22.70
2023-04-15T09:35:02.167Z,22.67
2023-04-15T09:36:02.034Z,22.65
2023-04-15T09:37:02.069Z,22.63
2023-04-15T09:38:01.998Z,22.58
2023-04-15T09:39:01.974Z,22.62
2023-04-15T09:40:01.961Z,22.59
2023-04-15T09:41:01.956Z,22.58
2023-04-15T09:42:02.001Z,22.59
2023-04-15T09:43:02.048Z,22.55
2023-04-15T09:44:02.263Z,22.54
2023-04-15T09:45:02.034Z,22.53
2023-04-15T09:46:02.056Z,22.57
2023-04-15T09:47:02.047Z,22.54
2023-04-15T09:48:02.147Z,22.50
2023-04-15T09:49:02.139Z,22.46
2023-04-15T09:50:02.290Z,22.42
2023-04-15T09:51:02.197Z,22.45
2023-04-15T09:52:06.136Z,22.49
2023-04-15T09:53:02.221Z,22.49
2023-04-15T09:54:02.614Z,22.46
2023-04-15T09:55:02.191Z,22.44
2023-04-15T09:56:02.179Z,22.39
2023-04-15T09:57:02.162Z,22.38
2023-04-15T09:58:02.185Z,22.37
2023-04-15T09:59:02.147Z,22.37
2023-04-15T10:00:02.152Z,22.36
2023-04-15T10:01:02.171Z,22.36
2023-04-15T10:02:02.112Z,22.32
2023-04-15T10:03:02.154Z,22.30
2023-04-15T10:04:02.320Z,22.32
2023-04-15T10:05:02.023Z,22.32
2023-04-15T10:06:02.081Z,22.31
2023-04-15T10:07:01.975Z,22.30
2023-04-15T10:08:01.970Z,22.28
2023-04-15T10:09:01.948Z,22.28
2023-04-15T10:10:01.959Z,22.29
2023-04-15T10:11:01.933Z,22.26
2023-04-15T10:12:01.875Z,22.19
2023-04-15T10:13:01.842Z,22.16
2023-04-15T10:14:02.238Z,22.19
2023-04-15T10:15:01.800Z,22.13
2023-04-15T10:16:01.841Z,22.07
2023-04-15T10:17:01.837Z,22.06
2023-04-15T10:18:01.902Z,22.06
2023-04-15T10:19:01.894Z,22.04
2023-04-15T10:20:02.008Z,22.06
2023-04-15T10:21:01.975Z,21.99
2023-04-15T10:22:01.992Z,22.01
2023-04-15T10:23:02.050Z,21.94
2023-04-15T10:24:02.164Z,21.94
2023-04-15T10:25:02.081Z,21.93
2023-04-15T10:26:02.089Z,21.92
2023-04-15T10:27:02.115Z,21.91
2023-04-15T10:28:02.150Z,21.85
2023-04-15T10:29:02.166Z,21.86
2023-04-15T10:30:02.183Z,21.90
2023-04-15T10:31:02.180Z,21.92
2023-04-15T10:32:02.178Z,21.85
2023-04-15T10:33:02.240Z,21.79
2023-04-15T10:34:02.374Z,21.77
2023-04-15T10:35:02.101Z,21.77
2023-04-15T10:36:02.065Z,21.82
2023-04-15T10:37:02.032Z,21.88
2023-04-15T10:38:02.023Z,21.92
2023-04-15T10:39:02.017Z,21.99
2023-04-15T10:40:02.120Z,21.86
2023-04-15T10:41:01.959Z,21.65
2023-04-15T10:42:01.942Z,21.68
2023-04-15T10:43:01.980Z,21.68
2023-04-15T10:44:02.151Z,21.70
2023-04-15T10:45:02.071Z,21.73
2023-04-15T10:46:02.069Z,21.76
2023-04-15T10:47:02.060Z,21.79
2023-04-15T10:48:03.637Z,21.77
2023-04-15T10:49:02.120Z,21.73
2023-04-15T10:50:02.245Z,21.75
2023-04-15T10:51:02.154Z,21.71
2023-04-15T10:52:02.207Z,21.76
2023-04-15T10:53:02.204Z,21.75
2023-04-15T10:54:02.296Z,21.69
2023-04-15T10:55:02.267Z,21.70
2023-04-15T10:56:02.308Z,21.51
2023-04-15T10:57:02.315Z,21.71
2023-04-15T10:58:02.333Z,21.70
2023-04-15T10:59:02.364Z,21.41
2023-04-15T11:00:02.402Z,21.53
2023-04-15T11:01:02.373Z,21.52
2023-04-15T11:02:02.447Z,21.42
2023-04-15T11:03:02.450Z,21.47
2023-04-15T11:04:02.842Z,21.53
2023-04-15T11:05:02.313Z,21.46
2023-04-15T11:06:02.352Z,21.27
2023-04-15T11:07:02.349Z,21.25
2023-04-15T11:08:02.373Z,21.44
2023-04-15T11:09:02.385Z,21.48
2023-04-15T11:10:02.412Z,21.41
2023-04-15T11:11:02.455Z,21.43
2023-04-15T11:12:02.456Z,21.39
2023-04-15T11:13:02.477Z,21.17
2023-04-15T11:14:02.583Z,21.09
2023-04-15T11:15:02.520Z,21.32
2023-04-15T11:16:02.666Z,21.12
2023-04-15T11:17:02.546Z,21.11
2023-04-15T11:18:02.603Z,21.02
2023-04-15T11:19:02.607Z,21.15
2023-04-15T11:20:02.645Z,21.13
2023-04-15T11:21:02.642Z,21.26
2023-04-15T11:22:02.661Z,21.17
2023-04-15T11:23:14.078Z,21.25
2023-04-15T11:24:04.069Z,21.19
2023-04-15T11:25:02.634Z,20.92
2023-04-15T11:26:02.623Z,20.73
2023-04-15T11:27:02.571Z,20.71
2023-04-15T11:28:02.535Z,20.75
2023-04-15T11:29:02.739Z,20.84
2023-04-15T11:30:02.509Z,20.94
2023-04-15T11:31:02.462Z,20.70
2023-04-15T11:32:02.527Z,20.96
2023-04-15T11:33:02.491Z,20.77
2023-04-15T11:34:02.472Z,20.72
2023-04-15T11:35:02.487Z,20.74
2023-04-15T11:36:02.532Z,20.58
2023-04-15T11:37:02.503Z,20.76
2023-04-15T11:38:02.537Z,20.55
2023-04-15T11:39:02.579Z,20.59
2023-04-15T11:40:02.578Z,20.74
2023-04-15T11:41:02.616Z,20.58
2023-04-15T11:42:02.651Z,20.43
2023-04-15T11:43:02.670Z,20.44
2023-04-15T11:44:02.919Z,20.39
2023-04-15T11:45:02.730Z,20.35
2023-04-15T11:46:02.836Z,20.34
2023-04-15T11:47:02.791Z,20.52
2023-04-15T11:48:02.830Z,20.37
2023-04-15T11:49:02.859Z,20.36
2023-04-15T11:50:02.873Z,20.39
2023-04-15T11:51:02.911Z,20.25
2023-04-15T11:52:02.937Z,20.23
2023-04-15T11:53:02.973Z,20.29
2023-04-15T11:54:03.464Z,20.28
2023-04-15T11:55:03.099Z,20.28
2023-04-15T11:56:03.052Z,20.26
2023-04-15T11:57:03.082Z,20.22
2023-04-15T11:58:03.127Z,20.23
2023-04-15T11:59:03.138Z,20.20
2023-04-15T12:00:03.207Z,20.18
2023-04-15T12:01:03.200Z,20.14
2023-04-15T12:02:03.338Z,20.18
2023-04-15T12:03:03.447Z,20.23
2023-04-15T12:04:03.671Z,20.23
2023-04-15T12:05:03.424Z,20.27
2023-04-15T12:06:03.356Z,20.25
2023-04-15T12:07:03.371Z,20.13
2023-04-15T12:08:03.422Z,20.14
2023-04-15T12:09:03.429Z,20.12
2023-04-15T12:10:03.452Z,20.12
2023-04-15T12:11:03.495Z,20.04
2023-04-15T12:12:03.510Z,20.10
2023-04-15T12:13:03.484Z,20.06
2023-04-15T12:14:03.624Z,20.07
2023-04-15T12:15:03.446Z,20.11
2023-04-15T12:16:03.448Z,20.06
2023-04-15T12:17:03.406Z,20.20
2023-04-15T12:18:03.390Z,20.10
2023-04-15T12:19:03.344Z,20.08
2023-04-15T12:20:03.322Z,20.00
2023-04-15T12:21:03.316Z,20.03
2023-04-15T12:22:03.352Z,19.98
2023-04-15T12:23:03.367Z,19.96
2023-04-15T12:24:03.752Z,19.93
2023-04-15T12:25:03.438Z,19.98
2023-04-15T12:26:03.450Z,20.00
2023-04-15T12:27:03.494Z,20.08
2023-04-15T12:28:03.504Z,20.06
2023-04-15T12:29:03.549Z,20.05
2023-04-15T12:30:03.583Z,20.01
2023-04-15T12:31:03.646Z,19.99
2023-04-15T12:32:03.635Z,20.00
2023-04-15T12:33:03.694Z,20.00
2023-04-15T12:34:03.888Z,20.01
2023-04-15T12:35:03.757Z,20.02
2023-04-15T12:36:03.775Z,20.04
2023-04-15T12:37:03.828Z,20.05
2023-04-15T12:38:03.836Z,20.02
2023-04-15T12:39:03.870Z,20.02
2023-04-15T12:40:03.915Z,20.04
2023-04-15T12:41:03.944Z,20.00
2023-04-15T12:42:03.980Z,19.98
2023-04-15T12:43:04.055Z,19.97
2023-04-15T12:44:04.360Z,19.99
2023-04-15T12:45:04.088Z,19.99
2023-04-15T12:46:04.147Z,19.99
2023-04-15T12:47:04.197Z,19.96
2023-04-15T12:48:04.188Z,19.97
2023-04-15T12:49:04.236Z,19.99
2023-04-15T12:50:04.265Z,20.00
2023-04-15T12:51:05.733Z,20.01
2023-04-15T12:52:04.380Z,20.02
2023-04-15T12:53:04.460Z,20.03
2023-04-15T12:54:04.579Z,20.05